sensor_id;sensor_type;location;lat;lon;timestamp;P1;durP1;ratioP1;P2;durP2;ratioP2
4521;SDS011;2273;48.464;11.926;2023-09-19T00:00:37;6.53;;;1.80;;
4521;SDS011;2273;48.464;11.926;2023-09-19T00:03:03;4.53;;;2.37;;
4521;SDS011;2273;48.464;11.926;2023-09-19T00:05:34;3.60;;;2.50;;
4521;SDS011;2273;48.464;11.926;2023-09-19T00:08:00;5.53;;;2.17;;
4521;SDS011;2273;48.464;11.926;2023-09-19T00:10:29;3.93;;;2.40;;
4521;SDS011;2273;48.464;11.926;2023-09-19T00:12:56;5.07;;;2.50;;
4521;SDS011;2273;48.464;11.926;2023-09-19T00:15:25;4.87;;;2.33;;
4521;SDS011;2273;48.464;11.926;2023-09-19T00:17:54;2.93;;;1.77;;
4521;SDS011;2273;48.464;11.926;2023-09-19T00:20:19;3.70;;;2.23;;
4521;SDS011;2273;48.464;11.926;2023-09-19T00:22:47;4.50;;;2.33;;
4521;SDS011;2273;48.464;11.926;2023-09-19T00:25:14;5.07;;;2.27;;
4521;SDS011;2273;48.464;11.926;2023-09-19T00:27:41;6.80;;;2.60;;
4521;SDS011;2273;48.464;11.926;2023-09-19T00:30:10;4.90;;;2.20;;
4521;SDS011;2273;48.464;11.926;2023-09-19T00:32:41;6.27;;;2.50;;
4521;SDS011;2273;48.464;11.926;2023-09-19T00:35:07;14.43;;;3.00;;
4521;SDS011;2273;48.464;11.926;2023-09-19T00:37:36;3.80;;;2.43;;
4521;SDS011;2273;48.464;11.926;2023-09-19T00:40:03;6.63;;;2.37;;
4521;SDS011;2273;48.464;11.926;2023-09-19T00:42:34;6.53;;;2.33;;
4521;SDS011;2273;48.464;11.926;2023-09-19T00:45:03;4.10;;;2.27;;
4521;SDS011;2273;48.464;11.926;2023-09-19T00:47:29;4.80;;;2.60;;
4521;SDS011;2273;48.464;11.926;2023-09-19T00:49:55;4.03;;;2.00;;
4521;SDS011;2273;48.464;11.926;2023-09-19T00:52:20;4.40;;;2.20;;
4521;SDS011;2273;48.464;11.926;2023-09-19T00:54:47;7.27;;;2.70;;
4521;SDS011;2273;48.464;11.926;2023-09-19T00:57:13;5.63;;;2.20;;
4521;SDS011;2273;48.464;11.926;2023-09-19T00:59:40;6.40;;;2.37;;
4521;SDS011;2273;48.464;11.926;2023-09-19T01:02:06;5.83;;;2.43;;
4521;SDS011;2273;48.464;11.926;2023-09-19T01:04:31;10.57;;;2.13;;
4521;SDS011;2273;48.464;11.926;2023-09-19T01:06:57;7.07;;;2.30;;
4521;SDS011;2273;48.464;11.926;2023-09-19T01:09:23;4.90;;;2.00;;
4521;SDS011;2273;48.464;11.926;2023-09-19T01:11:49;5.83;;;2.33;;
4521;SDS011;2273;48.464;11.926;2023-09-19T01:14:29;6.40;;;2.27;;
4521;SDS011;2273;48.464;11.926;2023-09-19T01:17:04;8.10;;;3.20;;
4521;SDS011;2273;48.464;11.926;2023-09-19T01:22:23;6.00;;;2.10;;
4521;SDS011;2273;48.464;11.926;2023-09-19T01:30:26;7.97;;;2.60;;
4521;SDS011;2273;48.464;11.926;2023-09-19T01:32:52;5.77;;;2.53;;
4521;SDS011;2273;48.464;11.926;2023-09-19T01:35:18;5.13;;;2.30;;
4521;SDS011;2273;48.464;11.926;2023-09-19T01:37:44;5.63;;;2.20;;
4521;SDS011;2273;48.464;11.926;2023-09-19T01:40:10;4.03;;;2.50;;
4521;SDS011;2273;48.464;11.926;2023-09-19T01:51:14;9.30;;;2.47;;
4521;SDS011;2273;48.464;11.926;2023-09-19T01:56:34;10.97;;;2.63;;
4521;SDS011;2273;48.464;11.926;2023-09-19T01:59:07;3.90;;;2.10;;
4521;SDS011;2273;48.464;11.926;2023-09-19T02:01:36;4.03;;;2.40;;
4521;SDS011;2273;48.464;11.926;2023-09-19T02:04:02;6.43;;;3.00;;
4521;SDS011;2273;48.464;11.926;2023-09-19T02:06:30;6.00;;;2.90;;
4521;SDS011;2273;48.464;11.926;2023-09-19T02:08:56;3.40;;;2.13;;
4521;SDS011;2273;48.464;11.926;2023-09-19T02:11:22;3.60;;;2.20;;
4521;SDS011;2273;48.464;11.926;2023-09-19T02:13:47;3.50;;;2.13;;
4521;SDS011;2273;48.464;11.926;2023-09-19T02:16:16;7.87;;;2.90;;
4521;SDS011;2273;48.464;11.926;2023-09-19T02:18:42;3.33;;;2.33;;
4521;SDS011;2273;48.464;11.926;2023-09-19T02:21:07;6.30;;;2.90;;
4521;SDS011;2273;48.464;11.926;2023-09-19T02:23:35;11.13;;;2.30;;
4521;SDS011;2273;48.464;11.926;2023-09-19T02:26:00;3.67;;;2.20;;
4521;SDS011;2273;48.464;11.926;2023-09-19T02:28:26;11.80;;;2.20;;
4521;SDS011;2273;48.464;11.926;2023-09-19T02:30:56;5.70;;;2.33;;
4521;SDS011;2273;48.464;11.926;2023-09-19T02:33:21;3.20;;;1.80;;
4521;SDS011;2273;48.464;11.926;2023-09-19T02:35:49;4.97;;;2.33;;
4521;SDS011;2273;48.464;11.926;2023-09-19T02:38:15;4.10;;;2.30;;
4521;SDS011;2273;48.464;11.926;2023-09-19T02:40:46;5.73;;;2.67;;
4521;SDS011;2273;48.464;11.926;2023-09-19T02:43:11;4.43;;;2.30;;
4521;SDS011;2273;48.464;11.926;2023-09-19T02:45:37;5.50;;;2.10;;
4521;SDS011;2273;48.464;11.926;2023-09-19T02:48:02;3.20;;;2.23;;
4521;SDS011;2273;48.464;11.926;2023-09-19T02:50:29;8.50;;;2.60;;
4521;SDS011;2273;48.464;11.926;2023-09-19T02:52:54;7.53;;;2.60;;
4521;SDS011;2273;48.464;11.926;2023-09-19T02:55:20;4.37;;;2.20;;
4521;SDS011;2273;48.464;11.926;2023-09-19T02:57:50;5.80;;;3.10;;
4521;SDS011;2273;48.464;11.926;2023-09-19T03:00:20;3.87;;;2.63;;
4521;SDS011;2273;48.464;11.926;2023-09-19T03:02:50;4.30;;;2.47;;
4521;SDS011;2273;48.464;11.926;2023-09-19T03:05:18;5.13;;;2.40;;
4521;SDS011;2273;48.464;11.926;2023-09-19T03:07:44;7.90;;;2.50;;
4521;SDS011;2273;48.464;11.926;2023-09-19T03:10:12;4.40;;;2.47;;
4521;SDS011;2273;48.464;11.926;2023-09-19T03:12:40;4.83;;;2.70;;
4521;SDS011;2273;48.464;11.926;2023-09-19T03:15:06;4.60;;;2.77;;
4521;SDS011;2273;48.464;11.926;2023-09-19T03:17:34;6.73;;;2.50;;
4521;SDS011;2273;48.464;11.926;2023-09-19T03:20:01;6.73;;;3.10;;
4521;SDS011;2273;48.464;11.926;2023-09-19T03:22:27;7.80;;;2.73;;
4521;SDS011;2273;48.464;11.926;2023-09-19T03:24:53;6.07;;;2.03;;
4521;SDS011;2273;48.464;11.926;2023-09-19T03:27:19;6.00;;;2.57;;
4521;SDS011;2273;48.464;11.926;2023-09-19T03:29:46;5.23;;;2.73;;
4521;SDS011;2273;48.464;11.926;2023-09-19T03:32:12;4.50;;;2.60;;
4521;SDS011;2273;48.464;11.926;2023-09-19T03:34:38;4.10;;;2.60;;
4521;SDS011;2273;48.464;11.926;2023-09-19T03:37:09;5.37;;;2.33;;
4521;SDS011;2273;48.464;11.926;2023-09-19T03:39:34;4.80;;;3.10;;
4521;SDS011;2273;48.464;11.926;2023-09-19T03:42:00;5.67;;;2.27;;
4521;SDS011;2273;48.464;11.926;2023-09-19T03:44:26;3.30;;;2.37;;
4521;SDS011;2273;48.464;11.926;2023-09-19T03:46:51;4.27;;;2.33;;
4521;SDS011;2273;48.464;11.926;2023-09-19T03:49:17;4.10;;;2.80;;
4521;SDS011;2273;48.464;11.926;2023-09-19T03:51:42;5.10;;;3.00;;
4521;SDS011;2273;48.464;11.926;2023-09-19T03:54:08;3.50;;;2.53;;
4521;SDS011;2273;48.464;11.926;2023-09-19T03:56:34;6.83;;;2.80;;
4521;SDS011;2273;48.464;11.926;2023-09-19T03:58:59;10.33;;;2.93;;
4521;SDS011;2273;48.464;11.926;2023-09-19T04:01:25;3.70;;;2.87;;
4521;SDS011;2273;48.464;11.926;2023-09-19T04:03:52;6.90;;;2.70;;
4521;SDS011;2273;48.464;11.926;2023-09-19T04:06:18;8.93;;;2.93;;
4521;SDS011;2273;48.464;11.926;2023-09-19T04:08:44;7.40;;;2.70;;
4521;SDS011;2273;48.464;11.926;2023-09-19T04:11:10;5.10;;;3.10;;
4521;SDS011;2273;48.464;11.926;2023-09-19T04:13:36;5.13;;;2.90;;
4521;SDS011;2273;48.464;11.926;2023-09-19T04:16:02;3.90;;;2.57;;
4521;SDS011;2273;48.464;11.926;2023-09-19T04:18:32;3.63;;;2.60;;
4521;SDS011;2273;48.464;11.926;2023-09-19T04:21:00;4.80;;;2.87;;
4521;SDS011;2273;48.464;11.926;2023-09-19T04:23:30;4.17;;;2.20;;
4521;SDS011;2273;48.464;11.926;2023-09-19T04:25:57;3.37;;;2.67;;
4521;SDS011;2273;48.464;11.926;2023-09-19T04:28:22;9.23;;;2.80;;
4521;SDS011;2273;48.464;11.926;2023-09-19T04:30:49;4.20;;;3.03;;
4521;SDS011;2273;48.464;11.926;2023-09-19T04:33:14;3.80;;;2.50;;
4521;SDS011;2273;48.464;11.926;2023-09-19T04:35:40;5.40;;;2.43;;
4521;SDS011;2273;48.464;11.926;2023-09-19T04:38:07;4.00;;;2.40;;
4521;SDS011;2273;48.464;11.926;2023-09-19T04:40:33;5.33;;;2.30;;
4521;SDS011;2273;48.464;11.926;2023-09-19T04:42:59;4.90;;;3.00;;
4521;SDS011;2273;48.464;11.926;2023-09-19T04:45:25;7.33;;;2.33;;
4521;SDS011;2273;48.464;11.926;2023-09-19T04:47:54;4.63;;;2.43;;
4521;SDS011;2273;48.464;11.926;2023-09-19T04:50:21;3.67;;;2.37;;
4521;SDS011;2273;48.464;11.926;2023-09-19T04:52:49;6.27;;;2.60;;
4521;SDS011;2273;48.464;11.926;2023-09-19T04:55:16;7.40;;;2.20;;
4521;SDS011;2273;48.464;11.926;2023-09-19T04:57:47;4.37;;;2.30;;
4521;SDS011;2273;48.464;11.926;2023-09-19T05:00:13;5.50;;;3.10;;
4521;SDS011;2273;48.464;11.926;2023-09-19T05:02:40;6.33;;;2.73;;
4521;SDS011;2273;48.464;11.926;2023-09-19T05:05:07;4.40;;;2.60;;
4521;SDS011;2273;48.464;11.926;2023-09-19T05:07:34;5.70;;;2.60;;
4521;SDS011;2273;48.464;11.926;2023-09-19T05:10:05;4.03;;;2.60;;
4521;SDS011;2273;48.464;11.926;2023-09-19T05:12:41;3.43;;;2.30;;
4521;SDS011;2273;48.464;11.926;2023-09-19T05:15:10;4.20;;;2.60;;
4521;SDS011;2273;48.464;11.926;2023-09-19T05:17:35;6.80;;;2.43;;
4521;SDS011;2273;48.464;11.926;2023-09-19T05:20:01;3.53;;;2.17;;
4521;SDS011;2273;48.464;11.926;2023-09-19T05:22:40;4.63;;;2.37;;
4521;SDS011;2273;48.464;11.926;2023-09-19T05:25:06;6.83;;;2.40;;
4521;SDS011;2273;48.464;11.926;2023-09-19T05:27:32;5.10;;;2.93;;
4521;SDS011;2273;48.464;11.926;2023-09-19T05:29:58;4.63;;;2.67;;
4521;SDS011;2273;48.464;11.926;2023-09-19T05:32:24;4.10;;;2.63;;
4521;SDS011;2273;48.464;11.926;2023-09-19T05:34:50;4.60;;;3.13;;
4521;SDS011;2273;48.464;11.926;2023-09-19T05:37:18;3.90;;;2.27;;
4521;SDS011;2273;48.464;11.926;2023-09-19T05:39:44;4.50;;;2.70;;
4521;SDS011;2273;48.464;11.926;2023-09-19T05:42:09;3.70;;;2.50;;
4521;SDS011;2273;48.464;11.926;2023-09-19T05:44:35;5.77;;;2.50;;
4521;SDS011;2273;48.464;11.926;2023-09-19T05:47:01;4.13;;;2.30;;
4521;SDS011;2273;48.464;11.926;2023-09-19T05:49:28;4.10;;;2.30;;
4521;SDS011;2273;48.464;11.926;2023-09-19T05:51:53;3.80;;;2.73;;
4521;SDS011;2273;48.464;11.926;2023-09-19T05:54:20;4.83;;;2.50;;
4521;SDS011;2273;48.464;11.926;2023-09-19T05:56:45;3.13;;;2.07;;
4521;SDS011;2273;48.464;11.926;2023-09-19T05:59:12;8.40;;;2.33;;
4521;SDS011;2273;48.464;11.926;2023-09-19T06:01:40;12.13;;;2.23;;
4521;SDS011;2273;48.464;11.926;2023-09-19T06:04:07;10.37;;;2.50;;
4521;SDS011;2273;48.464;11.926;2023-09-19T06:06:33;3.93;;;2.37;;
4521;SDS011;2273;48.464;11.926;2023-09-19T06:09:01;3.57;;;2.30;;
4521;SDS011;2273;48.464;11.926;2023-09-19T06:11:27;5.90;;;2.10;;
4521;SDS011;2273;48.464;11.926;2023-09-19T06:13:54;15.63;;;2.50;;
4521;SDS011;2273;48.464;11.926;2023-09-19T06:16:19;4.73;;;2.43;;
4521;SDS011;2273;48.464;11.926;2023-09-19T06:18:45;3.20;;;2.00;;
4521;SDS011;2273;48.464;11.926;2023-09-19T06:21:10;5.63;;;2.70;;
4521;SDS011;2273;48.464;11.926;2023-09-19T06:23:36;5.40;;;2.17;;
4521;SDS011;2273;48.464;11.926;2023-09-19T06:26:01;5.67;;;2.10;;
4521;SDS011;2273;48.464;11.926;2023-09-19T06:28:27;7.50;;;2.40;;
4521;SDS011;2273;48.464;11.926;2023-09-19T06:30:54;5.40;;;2.50;;
4521;SDS011;2273;48.464;11.926;2023-09-19T06:33:20;3.57;;;2.87;;
4521;SDS011;2273;48.464;11.926;2023-09-19T06:35:46;5.37;;;2.63;;
4521;SDS011;2273;48.464;11.926;2023-09-19T06:38:13;7.10;;;3.17;;
4521;SDS011;2273;48.464;11.926;2023-09-19T06:40:39;3.50;;;2.23;;
4521;SDS011;2273;48.464;11.926;2023-09-19T06:43:09;6.07;;;2.80;;
4521;SDS011;2273;48.464;11.926;2023-09-19T06:45:35;6.13;;;2.37;;
4521;SDS011;2273;48.464;11.926;2023-09-19T06:48:00;3.53;;;2.40;;
4521;SDS011;2273;48.464;11.926;2023-09-19T06:50:27;3.80;;;2.33;;
4521;SDS011;2273;48.464;11.926;2023-09-19T06:52:53;5.47;;;2.83;;
4521;SDS011;2273;48.464;11.926;2023-09-19T06:55:20;3.40;;;2.30;;
4521;SDS011;2273;48.464;11.926;2023-09-19T06:57:46;5.87;;;2.50;;
4521;SDS011;2273;48.464;11.926;2023-09-19T07:00:12;8.43;;;2.07;;
4521;SDS011;2273;48.464;11.926;2023-09-19T07:03:00;5.30;;;2.63;;
4521;SDS011;2273;48.464;11.926;2023-09-19T07:05:32;5.93;;;2.50;;
4521;SDS011;2273;48.464;11.926;2023-09-19T07:07:58;3.33;;;2.27;;
4521;SDS011;2273;48.464;11.926;2023-09-19T07:10:24;4.50;;;2.37;;
4521;SDS011;2273;48.464;11.926;2023-09-19T07:13:01;3.50;;;2.00;;
4521;SDS011;2273;48.464;11.926;2023-09-19T07:15:34;5.63;;;2.03;;
4521;SDS011;2273;48.464;11.926;2023-09-19T07:18:26;3.93;;;2.60;;
4521;SDS011;2273;48.464;11.926;2023-09-19T07:20:56;3.43;;;2.07;;
4521;SDS011;2273;48.464;11.926;2023-09-19T07:23:26;4.60;;;2.20;;
4521;SDS011;2273;48.464;11.926;2023-09-19T07:25:51;4.77;;;2.40;;
4521;SDS011;2273;48.464;11.926;2023-09-19T07:28:17;2.77;;;1.87;;
4521;SDS011;2273;48.464;11.926;2023-09-19T07:30:43;4.10;;;2.30;;
4521;SDS011;2273;48.464;11.926;2023-09-19T07:33:09;4.10;;;2.17;;
4521;SDS011;2273;48.464;11.926;2023-09-19T07:35:36;3.73;;;2.03;;
4521;SDS011;2273;48.464;11.926;2023-09-19T07:38:05;6.03;;;2.43;;
4521;SDS011;2273;48.464;11.926;2023-09-19T07:40:30;4.23;;;2.10;;
4521;SDS011;2273;48.464;11.926;2023-09-19T07:42:55;4.60;;;2.00;;
4521;SDS011;2273;48.464;11.926;2023-09-19T07:45:21;3.07;;;1.73;;
4521;SDS011;2273;48.464;11.926;2023-09-19T07:47:48;4.33;;;2.07;;
4521;SDS011;2273;48.464;11.926;2023-09-19T07:50:15;7.53;;;1.50;;
4521;SDS011;2273;48.464;11.926;2023-09-19T07:52:44;3.33;;;1.70;;
4521;SDS011;2273;48.464;11.926;2023-09-19T07:55:10;4.33;;;1.63;;
4521;SDS011;2273;48.464;11.926;2023-09-19T07:57:36;3.67;;;1.70;;
4521;SDS011;2273;48.464;11.926;2023-09-19T08:00:02;3.90;;;1.83;;
4521;SDS011;2273;48.464;11.926;2023-09-19T08:02:36;5.33;;;2.00;;
4521;SDS011;2273;48.464;11.926;2023-09-19T08:05:08;3.43;;;2.10;;
4521;SDS011;2273;48.464;11.926;2023-09-19T08:07:39;6.70;;;1.90;;
4521;SDS011;2273;48.464;11.926;2023-09-19T08:10:05;2.80;;;1.93;;
4521;SDS011;2273;48.464;11.926;2023-09-19T08:12:52;2.73;;;2.00;;
4521;SDS011;2273;48.464;11.926;2023-09-19T08:15:23;6.20;;;2.20;;
4521;SDS011;2273;48.464;11.926;2023-09-19T08:17:48;4.77;;;1.80;;
4521;SDS011;2273;48.464;11.926;2023-09-19T08:20:15;4.20;;;1.70;;
4521;SDS011;2273;48.464;11.926;2023-09-19T08:22:47;7.83;;;1.70;;
4521;SDS011;2273;48.464;11.926;2023-09-19T08:25:14;4.50;;;1.80;;
4521;SDS011;2273;48.464;11.926;2023-09-19T08:27:42;3.47;;;2.10;;
4521;SDS011;2273;48.464;11.926;2023-09-19T08:30:11;4.27;;;1.73;;
4521;SDS011;2273;48.464;11.926;2023-09-19T08:32:36;13.57;;;1.97;;
4521;SDS011;2273;48.464;11.926;2023-09-19T08:35:02;5.23;;;1.73;;
4521;SDS011;2273;48.464;11.926;2023-09-19T08:37:29;3.13;;;1.87;;
4521;SDS011;2273;48.464;11.926;2023-09-19T08:39:55;5.23;;;1.77;;
4521;SDS011;2273;48.464;11.926;2023-09-19T08:42:20;2.60;;;1.43;;
4521;SDS011;2273;48.464;11.926;2023-09-19T08:44:46;4.37;;;1.80;;
4521;SDS011;2273;48.464;11.926;2023-09-19T08:47:14;3.03;;;1.47;;
4521;SDS011;2273;48.464;11.926;2023-09-19T08:49:41;4.50;;;1.87;;
4521;SDS011;2273;48.464;11.926;2023-09-19T08:52:20;2.70;;;1.50;;
4521;SDS011;2273;48.464;11.926;2023-09-19T08:54:48;3.00;;;1.50;;
4521;SDS011;2273;48.464;11.926;2023-09-19T08:57:18;2.20;;;1.40;;
4521;SDS011;2273;48.464;11.926;2023-09-19T08:59:47;7.90;;;1.37;;
4521;SDS011;2273;48.464;11.926;2023-09-19T09:02:15;2.30;;;1.40;;
4521;SDS011;2273;48.464;11.926;2023-09-19T09:04:41;3.33;;;1.70;;
4521;SDS011;2273;48.464;11.926;2023-09-19T09:07:12;4.60;;;2.10;;
4521;SDS011;2273;48.464;11.926;2023-09-19T09:09:38;2.60;;;1.57;;
4521;SDS011;2273;48.464;11.926;2023-09-19T09:12:07;3.40;;;1.70;;
4521;SDS011;2273;48.464;11.926;2023-09-19T09:14:34;2.50;;;1.50;;
4521;SDS011;2273;48.464;11.926;2023-09-19T09:17:00;2.00;;;1.43;;
4521;SDS011;2273;48.464;11.926;2023-09-19T09:19:26;2.07;;;1.40;;
4521;SDS011;2273;48.464;11.926;2023-09-19T09:21:51;2.33;;;1.40;;
4521;SDS011;2273;48.464;11.926;2023-09-19T09:24:26;2.30;;;1.40;;
4521;SDS011;2273;48.464;11.926;2023-09-19T09:26:56;2.60;;;1.50;;
4521;SDS011;2273;48.464;11.926;2023-09-19T09:32:18;3.07;;;1.63;;
4521;SDS011;2273;48.464;11.926;2023-09-19T09:34:55;3.97;;;1.53;;
4521;SDS011;2273;48.464;11.926;2023-09-19T09:37:22;4.10;;;1.63;;
4521;SDS011;2273;48.464;11.926;2023-09-19T09:39:51;3.90;;;1.60;;
4521;SDS011;2273;48.464;11.926;2023-09-19T09:42:29;2.97;;;1.50;;
4521;SDS011;2273;48.464;11.926;2023-09-19T09:45:15;2.50;;;1.60;;
4521;SDS011;2273;48.464;11.926;2023-09-19T09:47:44;2.50;;;1.40;;
4521;SDS011;2273;48.464;11.926;2023-09-19T09:52:55;2.27;;;1.50;;
4521;SDS011;2273;48.464;11.926;2023-09-19T09:58:35;1.80;;;1.00;;
4521;SDS011;2273;48.464;11.926;2023-09-19T10:01:03;2.90;;;1.13;;
4521;SDS011;2273;48.464;11.926;2023-09-19T10:03:39;5.03;;;1.50;;
4521;SDS011;2273;48.464;11.926;2023-09-19T10:06:09;1.97;;;1.23;;
4521;SDS011;2273;48.464;11.926;2023-09-19T10:08:58;7.13;;;1.10;;
4521;SDS011;2273;48.464;11.926;2023-09-19T10:11:44;4.07;;;1.37;;
4521;SDS011;2273;48.464;11.926;2023-09-19T10:14:11;2.77;;;1.23;;
4521;SDS011;2273;48.464;11.926;2023-09-19T10:16:45;3.50;;;1.10;;
4521;SDS011;2273;48.464;11.926;2023-09-19T10:19:14;4.00;;;1.50;;
4521;SDS011;2273;48.464;11.926;2023-09-19T10:21:48;2.03;;;1.20;;
4521;SDS011;2273;48.464;11.926;2023-09-19T10:24:14;2.90;;;1.20;;
4521;SDS011;2273;48.464;11.926;2023-09-19T10:26:42;1.70;;;1.03;;
4521;SDS011;2273;48.464;11.926;2023-09-19T10:29:10;2.33;;;1.40;;
4521;SDS011;2273;48.464;11.926;2023-09-19T10:31:39;4.60;;;1.40;;
4521;SDS011;2273;48.464;11.926;2023-09-19T10:34:06;2.20;;;1.13;;
4521;SDS011;2273;48.464;11.926;2023-09-19T10:36:35;2.10;;;1.23;;
4521;SDS011;2273;48.464;11.926;2023-09-19T10:39:02;2.63;;;1.60;;
4521;SDS011;2273;48.464;11.926;2023-09-19T10:41:32;3.13;;;1.40;;
4521;SDS011;2273;48.464;11.926;2023-09-19T10:43:59;2.70;;;1.53;;
4521;SDS011;2273;48.464;11.926;2023-09-19T10:46:28;4.57;;;1.57;;
4521;SDS011;2273;48.464;11.926;2023-09-19T10:48:54;3.60;;;1.50;;
4521;SDS011;2273;48.464;11.926;2023-09-19T10:51:28;2.57;;;1.47;;
4521;SDS011;2273;48.464;11.926;2023-09-19T10:53:59;2.40;;;1.50;;
4521;SDS011;2273;48.464;11.926;2023-09-19T10:56:32;3.10;;;1.60;;
4521;SDS011;2273;48.464;11.926;2023-09-19T10:59:06;4.90;;;2.03;;
4521;SDS011;2273;48.464;11.926;2023-09-19T11:01:53;1.90;;;1.30;;
4521;SDS011;2273;48.464;11.926;2023-09-19T11:04:24;2.00;;;1.30;;
4521;SDS011;2273;48.464;11.926;2023-09-19T11:07:07;2.27;;;1.20;;
4521;SDS011;2273;48.464;11.926;2023-09-19T11:09:46;2.30;;;1.53;;
4521;SDS011;2273;48.464;11.926;2023-09-19T11:15:06;2.20;;;1.50;;
4521;SDS011;2273;48.464;11.926;2023-09-19T11:17:42;1.73;;;1.27;;
4521;SDS011;2273;48.464;11.926;2023-09-19T11:30:51;2.07;;;1.20;;
4521;SDS011;2273;48.464;11.926;2023-09-19T11:36:10;1.77;;;1.13;;
4521;SDS011;2273;48.464;11.926;2023-09-19T11:43:50;1.50;;;1.03;;
4521;SDS011;2273;48.464;11.926;2023-09-19T11:46:16;2.80;;;1.27;;
4521;SDS011;2273;48.464;11.926;2023-09-19T11:48:47;3.30;;;1.20;;
4521;SDS011;2273;48.464;11.926;2023-09-19T11:51:13;4.07;;;1.40;;
4521;SDS011;2273;48.464;11.926;2023-09-19T11:53:48;5.70;;;1.30;;
4521;SDS011;2273;48.464;11.926;2023-09-19T11:56:15;1.60;;;1.10;;
4521;SDS011;2273;48.464;11.926;2023-09-19T11:58:52;2.43;;;1.30;;
4521;SDS011;2273;48.464;11.926;2023-09-19T12:01:31;3.03;;;1.30;;
4521;SDS011;2273;48.464;11.926;2023-09-19T12:03:58;2.03;;;1.30;;
4521;SDS011;2273;48.464;11.926;2023-09-19T12:06:25;2.90;;;1.53;;
4521;SDS011;2273;48.464;11.926;2023-09-19T12:08:51;2.40;;;1.37;;
4521;SDS011;2273;48.464;11.926;2023-09-19T12:11:19;1.73;;;1.10;;
4521;SDS011;2273;48.464;11.926;2023-09-19T12:13:47;2.30;;;1.40;;
4521;SDS011;2273;48.464;11.926;2023-09-19T12:18:40;2.67;;;1.40;;
4521;SDS011;2273;48.464;11.926;2023-09-19T12:21:08;2.97;;;1.40;;
4521;SDS011;2273;48.464;11.926;2023-09-19T12:23:37;3.80;;;1.97;;
4521;SDS011;2273;48.464;11.926;2023-09-19T12:26:06;4.50;;;1.60;;
4521;SDS011;2273;48.464;11.926;2023-09-19T12:28:40;2.30;;;1.50;;
4521;SDS011;2273;48.464;11.926;2023-09-19T12:31:07;2.50;;;1.63;;
4521;SDS011;2273;48.464;11.926;2023-09-19T12:33:33;3.83;;;1.33;;
4521;SDS011;2273;48.464;11.926;2023-09-19T12:35:59;12.40;;;1.50;;
4521;SDS011;2273;48.464;11.926;2023-09-19T12:38:25;2.10;;;1.53;;
4521;SDS011;2273;48.464;11.926;2023-09-19T12:40:54;2.83;;;1.50;;
4521;SDS011;2273;48.464;11.926;2023-09-19T12:43:20;2.63;;;1.60;;
4521;SDS011;2273;48.464;11.926;2023-09-19T12:45:46;3.80;;;1.63;;
4521;SDS011;2273;48.464;11.926;2023-09-19T12:48:25;5.10;;;1.77;;
4521;SDS011;2273;48.464;11.926;2023-09-19T12:51:07;2.73;;;1.60;;
4521;SDS011;2273;48.464;11.926;2023-09-19T12:53:43;2.17;;;1.60;;
4521;SDS011;2273;48.464;11.926;2023-09-19T12:56:12;2.20;;;1.50;;
4521;SDS011;2273;48.464;11.926;2023-09-19T12:58:49;3.00;;;1.63;;
4521;SDS011;2273;48.464;11.926;2023-09-19T13:01:20;2.80;;;1.63;;
4521;SDS011;2273;48.464;11.926;2023-09-19T13:06:37;2.90;;;1.33;;
4521;SDS011;2273;48.464;11.926;2023-09-19T13:09:11;3.63;;;1.57;;
4521;SDS011;2273;48.464;11.926;2023-09-19T13:11:37;1.93;;;1.33;;
4521;SDS011;2273;48.464;11.926;2023-09-19T13:14:21;3.60;;;1.53;;
4521;SDS011;2273;48.464;11.926;2023-09-19T13:19:38;2.63;;;1.53;;
4521;SDS011;2273;48.464;11.926;2023-09-19T13:25:09;3.93;;;1.60;;
4521;SDS011;2273;48.464;11.926;2023-09-19T13:27:40;1.87;;;1.17;;
4521;SDS011;2273;48.464;11.926;2023-09-19T13:30:06;2.63;;;1.67;;
4521;SDS011;2273;48.464;11.926;2023-09-19T13:32:32;6.13;;;1.30;;
4521;SDS011;2273;48.464;11.926;2023-09-19T13:34:58;4.53;;;1.40;;
4521;SDS011;2273;48.464;11.926;2023-09-19T13:37:23;4.63;;;1.30;;
4521;SDS011;2273;48.464;11.926;2023-09-19T13:39:49;8.20;;;1.47;;
4521;SDS011;2273;48.464;11.926;2023-09-19T13:42:14;2.23;;;1.30;;
4521;SDS011;2273;48.464;11.926;2023-09-19T13:44:41;4.00;;;1.37;;
4521;SDS011;2273;48.464;11.926;2023-09-19T13:47:06;2.57;;;1.20;;
4521;SDS011;2273;48.464;11.926;2023-09-19T13:49:38;3.70;;;1.20;;
4521;SDS011;2273;48.464;11.926;2023-09-19T13:52:04;1.60;;;1.10;;
4521;SDS011;2273;48.464;11.926;2023-09-19T13:54:30;2.00;;;1.13;;
4521;SDS011;2273;48.464;11.926;2023-09-19T13:56:55;2.67;;;1.30;;
4521;SDS011;2273;48.464;11.926;2023-09-19T13:59:21;3.20;;;1.27;;
4521;SDS011;2273;48.464;11.926;2023-09-19T14:01:49;2.03;;;1.20;;
4521;SDS011;2273;48.464;11.926;2023-09-19T14:04:40;3.27;;;1.20;;
4521;SDS011;2273;48.464;11.926;2023-09-19T14:07:06;5.43;;;1.23;;
4521;SDS011;2273;48.464;11.926;2023-09-19T14:09:33;1.47;;;1.00;;
4521;SDS011;2273;48.464;11.926;2023-09-19T14:11:59;4.00;;;1.00;;
4521;SDS011;2273;48.464;11.926;2023-09-19T14:14:25;2.60;;;1.33;;
4521;SDS011;2273;48.464;11.926;2023-09-19T14:16:50;2.47;;;1.03;;
4521;SDS011;2273;48.464;11.926;2023-09-19T14:19:17;2.07;;;1.00;;
4521;SDS011;2273;48.464;11.926;2023-09-19T14:21:43;1.90;;;1.00;;
4521;SDS011;2273;48.464;11.926;2023-09-19T14:24:09;2.03;;;1.10;;
4521;SDS011;2273;48.464;11.926;2023-09-19T14:26:35;2.13;;;1.20;;
4521;SDS011;2273;48.464;11.926;2023-09-19T14:29:01;3.93;;;1.00;;
4521;SDS011;2273;48.464;11.926;2023-09-19T14:31:27;2.17;;;1.00;;
4521;SDS011;2273;48.464;11.926;2023-09-19T14:33:56;1.90;;;1.10;;
4521;SDS011;2273;48.464;11.926;2023-09-19T14:36:22;5.73;;;1.40;;
4521;SDS011;2273;48.464;11.926;2023-09-19T14:38:52;2.13;;;1.20;;
4521;SDS011;2273;48.464;11.926;2023-09-19T14:41:19;1.60;;;1.13;;
4521;SDS011;2273;48.464;11.926;2023-09-19T14:43:44;1.80;;;1.00;;
4521;SDS011;2273;48.464;11.926;2023-09-19T14:46:09;2.03;;;1.30;;
4521;SDS011;2273;48.464;11.926;2023-09-19T14:48:36;2.70;;;1.37;;
4521;SDS011;2273;48.464;11.926;2023-09-19T14:51:02;5.30;;;1.97;;
4521;SDS011;2273;48.464;11.926;2023-09-19T14:53:28;2.70;;;1.17;;
4521;SDS011;2273;48.464;11.926;2023-09-19T14:55:53;1.33;;;1.03;;
4521;SDS011;2273;48.464;11.926;2023-09-19T14:58:20;5.77;;;1.10;;
4521;SDS011;2273;48.464;11.926;2023-09-19T15:00:46;1.60;;;1.10;;
4521;SDS011;2273;48.464;11.926;2023-09-19T15:03:11;4.27;;;1.50;;
4521;SDS011;2273;48.464;11.926;2023-09-19T15:05:38;5.33;;;1.00;;
4521;SDS011;2273;48.464;11.926;2023-09-19T15:08:04;1.57;;;1.00;;
4521;SDS011;2273;48.464;11.926;2023-09-19T15:10:31;2.33;;;1.37;;
4521;SDS011;2273;48.464;11.926;2023-09-19T15:12:56;5.33;;;1.20;;
4521;SDS011;2273;48.464;11.926;2023-09-19T15:15:22;5.40;;;1.47;;
4521;SDS011;2273;48.464;11.926;2023-09-19T15:17:48;1.83;;;1.10;;
4521;SDS011;2273;48.464;11.926;2023-09-19T15:20:13;2.13;;;1.00;;
4521;SDS011;2273;48.464;11.926;2023-09-19T15:22:39;2.50;;;1.10;;
4521;SDS011;2273;48.464;11.926;2023-09-19T15:25:05;2.63;;;1.40;;
4521;SDS011;2273;48.464;11.926;2023-09-19T15:27:31;2.50;;;1.30;;
4521;SDS011;2273;48.464;11.926;2023-09-19T15:29:59;3.33;;;1.13;;
4521;SDS011;2273;48.464;11.926;2023-09-19T15:32:25;4.90;;;0.90;;
4521;SDS011;2273;48.464;11.926;2023-09-19T15:34:51;2.70;;;1.20;;
4521;SDS011;2273;48.464;11.926;2023-09-19T15:37:16;1.70;;;1.00;;
4521;SDS011;2273;48.464;11.926;2023-09-19T15:39:42;3.70;;;1.40;;
4521;SDS011;2273;48.464;11.926;2023-09-19T15:42:09;2.50;;;1.00;;
4521;SDS011;2273;48.464;11.926;2023-09-19T15:44:36;3.50;;;1.17;;
4521;SDS011;2273;48.464;11.926;2023-09-19T15:47:03;1.33;;;1.00;;
4521;SDS011;2273;48.464;11.926;2023-09-19T15:49:30;2.10;;;1.27;;
4521;SDS011;2273;48.464;11.926;2023-09-19T15:51:56;1.80;;;1.07;;
4521;SDS011;2273;48.464;11.926;2023-09-19T15:54:21;2.37;;;1.20;;
4521;SDS011;2273;48.464;11.926;2023-09-19T15:56:47;2.60;;;1.13;;
4521;SDS011;2273;48.464;11.926;2023-09-19T15:59:13;2.30;;;1.37;;
4521;SDS011;2273;48.464;11.926;2023-09-19T16:01:44;2.90;;;1.37;;
4521;SDS011;2273;48.464;11.926;2023-09-19T16:04:09;7.07;;;1.10;;
4521;SDS011;2273;48.464;11.926;2023-09-19T16:06:36;7.07;;;1.10;;